Time;durP1;ratioP1;P1;durP2;ratioP2;P2;SDS_P1;SDS_P2;PMS_P1;PMS_P2;Temp;Humidity;BMP_temperature;BMP_pressure;BME280_temperature;BME280_humidity;BME280_pressure;Samples;Min_cycle;Max_cycle;Signal;HPM_P1;HPM_P2
2022/09/25 00:00:56;;;;;;;;;;;;;;;7.57;72.30;101476.78;1717464;83;28191;-59
2022/09/25 00:03:26;;;;;;;;;;;;;;;7.53;72.52;101484.13;1717383;83;25778;-60
2022/09/25 00:06:05;;;;;;;;;;;;;;;7.51;72.53;101475.36;1717531;83;25762;-62
2022/09/25 00:08:33;;;;;;;;;;;;;;;7.51;72.91;101479.38;1717660;83;25870;-60
2022/09/25 00:11:01;;;;;;;;;;;;;;;7.48;72.85;101477.77;1717591;83;25861;-59
2022/09/25 00:13:28;;;;;;;;;;;;;;;7.48;72.88;101475.55;1717757;83;27566;-59
2022/09/25 00:15:56;;;;;;;;;;;;;;;7.48;73.04;101486.25;1717433;83;25628;-59
2022/09/25 00:21:13;;;;;;;;;;;;;;;7.44;73.25;101480.23;1717334;83;25817;-59
2022/09/25 00:23:41;;;;;;;;;;;;;;;7.46;73.38;101484.14;1717442;83;25809;-59
2022/09/25 00:26:08;;;;;;;;;;;;;;;7.46;73.34;101481.00;1717399;83;27551;-59
2022/09/25 00:28:35;;;;;;;;;;;;;;;7.46;73.33;101483.69;1717702;83;25738;-59
2022/09/25 00:31:04;;;;;;;;;;;;;;;7.45;73.19;101479.74;1704270;83;26451;-58
2022/09/25 00:33:34;;;;;;;;;;;;;;;7.42;72.90;101476.80;1702494;84;25834;-59
2022/09/25 00:36:06;;;;;;;;;;;;;;;7.41;73.03;101469.72;1702661;84;25703;-59
2022/09/25 00:38:34;;;;;;;;;;;;;;;7.38;72.91;101465.92;1702274;83;27680;-58
2022/09/25 00:41:01;;;;;;;;;;;;;;;7.37;72.64;101461.52;1713148;82;25829;-60
2022/09/25 00:43:37;;;;;;;;;;;;;;;7.32;72.69;101464.95;1710315;83;25744;-60
2022/09/25 00:46:26;;;;;;;;;;;;;;;7.29;72.77;101454.46;1710893;82;26514;-58
2022/09/25 00:49:11;;;;;;;;;;;;;;;7.26;72.88;101454.16;1695908;83;25739;-60
2022/09/25 00:51:53;;;;;;;;;;;;;;;7.21;73.27;101456.28;1649018;85;27566;-59
2022/09/25 00:54:22;;;;;;;;;;;;;;;7.20;73.29;101454.55;1648539;85;25866;-59
2022/09/25 00:56:50;;;;;;;;;;;;;;;7.19;72.99;101451.49;1676373;85;25682;-60
2022/09/25 00:59:20;;;;;;;;;;;;;;;7.16;72.64;101454.39;1675514;85;27164;-59
2022/09/25 01:01:47;;;;;;;;;;;;;;;7.12;72.70;101451.51;1665708;85;26235;-59
2022/09/25 01:04:15;;;;;;;;;;;;;;;7.09;72.97;101453.03;1671151;85;27547;-62
2022/09/25 01:06:42;;;;;;;;;;;;;;;7.07;72.75;101455.81;1680001;84;25737;-60
2022/09/25 01:09:08;;;;;;;;;;;;;;;7.05;72.62;101456.38;1670314;85;25792;-60
2022/09/25 01:11:35;;;;;;;;;;;;;;;7.02;72.86;101461.45;1720424;83;25995;-60
2022/09/25 01:14:03;;;;;;;;;;;;;;;7.00;72.83;101464.69;1733488;82;25874;-59
2022/09/25 01:16:46;;;;;;;;;;;;;;;6.99;72.95;101458.95;1738247;82;27675;-59
2022/09/25 01:19:22;;;;;;;;;;;;;;;6.99;73.05;101466.98;1725648;82;25733;-59
2022/09/25 01:21:52;;;;;;;;;;;;;;;6.98;72.83;101460.40;1720473;82;25622;-61
2022/09/25 01:24:39;;;;;;;;;;;;;;;6.96;72.65;101459.63;1720348;82;25966;-59
2022/09/25 01:27:18;;;;;;;;;;;;;;;6.95;72.90;101461.95;1720570;83;25702;-59
2022/09/25 01:30:05;;;;;;;;;;;;;;;6.92;72.82;101456.29;1724783;81;27476;-61
2022/09/25 01:32:44;;;;;;;;;;;;;;;6.89;72.85;101457.34;1711985;83;25751;-59
2022/09/25 01:35:33;;;;;;;;;;;;;;;6.88;72.86;101460.97;1710057;83;25785;-59
2022/09/25 01:38:23;;;;;;;;;;;;;;;6.84;72.84;101459.45;1712241;81;25803;-59
2022/09/25 01:41:06;;;;;;;;;;;;;;;6.83;73.04;101467.09;1742852;82;25770;-59
2022/09/25 01:43:42;;;;;;;;;;;;;;;6.81;72.84;101464.98;1742894;82;26695;-59
2022/09/25 01:46:18;;;;;;;;;;;;;;;6.80;72.70;101463.75;1738986;81;25961;-60
2022/09/25 01:48:48;;;;;;;;;;;;;;;6.77;72.65;101463.94;1746070;80;25756;-58
2022/09/25 01:51:25;;;;;;;;;;;;;;;6.72;72.59;101466.89;1756487;81;25817;-59
2022/09/25 01:53:54;;;;;;;;;;;;;;;6.67;72.47;101464.50;1756413;81;25703;-59
2022/09/25 01:56:33;;;;;;;;;;;;;;;6.64;72.46;101461.16;1756502;81;27666;-60
2022/09/25 01:59:06;;;;;;;;;;;;;;;6.62;72.54;101461.72;1756334;81;25754;-59
2022/09/25 02:01:37;;;;;;;;;;;;;;;6.56;72.43;101457.59;1756433;81;25454;-59
2022/09/25 02:04:08;;;;;;;;;;;;;;;6.56;72.48;101464.28;1750292;81;25998;-60
2022/09/25 02:06:37;;;;;;;;;;;;;;;6.52;72.87;101464.95;1748516;82;25898;-60
2022/09/25 02:09:06;;;;;;;;;;;;;;;6.50;72.70;101461.98;1748418;82;27549;-59
2022/09/25 02:11:38;;;;;;;;;;;;;;;6.48;72.37;101459.88;1748386;82;25684;-59
2022/09/25 02:14:11;;;;;;;;;;;;;;;6.42;72.45;101461.10;1748571;82;25802;-59
2022/09/25 02:16:42;;;;;;;;;;;;;;;6.39;72.57;101467.98;1748331;81;26624;-60
2022/09/25 02:22:05;;;;;;;;;;;;;;;6.31;72.57;101467.10;1748389;82;27506;-60
2022/09/25 02:24:46;;;;;;;;;;;;;;;6.26;72.86;101462.52;1748332;82;27269;-60
2022/09/25 02:27:13;;;;;;;;;;;;;;;6.18;72.96;101462.96;1748305;82;25787;-59
2022/09/25 02:29:41;;;;;;;;;;;;;;;6.18;73.35;101456.77;1752953;81;25798;-60
2022/09/25 02:32:11;;;;;;;;;;;;;;;6.18;73.68;101455.44;1754328;81;25751;-59
2022/09/25 02:34:39;;;;;;;;;;;;;;;6.18;73.96;101453.61;1753532;80;27484;-59
2022/09/25 02:37:10;;;;;;;;;;;;;;;6.19;74.20;101458.01;1754233;80;25617;-60
2022/09/25 02:39:37;;;;;;;;;;;;;;;6.23;74.33;101456.02;1743912;81;25918;-60
2022/09/25 02:42:25;;;;;;;;;;;;;;;6.26;74.30;101463.36;1748308;82;26063;-59
2022/09/25 02:45:20;;;;;;;;;;;;;;;6.30;74.47;101457.84;1748362;81;25796;-59
2022/09/25 02:48:05;;;;;;;;;;;;;;;6.33;74.44;101456.31;1747849;82;27558;-60
2022/09/25 02:50:42;;;;;;;;;;;;;;;6.36;74.31;101449.00;1742901;82;25762;-60
2022/09/25 02:53:15;;;;;;;;;;;;;;;6.37;74.26;101450.69;1742885;82;25703;-59
2022/09/25 02:55:48;;;;;;;;;;;;;;;6.37;74.15;101452.02;1742022;82;26412;-60
2022/09/25 02:58:36;;;;;;;;;;;;;;;6.35;73.59;101447.27;1743227;82;25924;-59
2022/09/25 03:01:05;;;;;;;;;;;;;;;6.33;73.67;101452.30;1741941;82;27548;-59
2022/09/25 03:03:33;;;;;;;;;;;;;;;6.31;73.95;101449.73;1743078;82;25973;-59
2022/09/25 03:06:02;;;;;;;;;;;;;;;6.30;73.84;101456.02;1742770;82;25750;-59
2022/09/25 03:08:38;;;;;;;;;;;;;;;6.29;73.77;101448.95;1743192;82;25892;-58
2022/09/25 03:11:07;;;;;;;;;;;;;;;6.26;73.61;101447.33;1742723;82;25710;-60
2022/09/25 03:13:34;;;;;;;;;;;;;;;6.24;73.62;101446.55;1743355;82;27447;-59
2022/09/25 03:16:13;;;;;;;;;;;;;;;6.23;73.65;101449.33;1742247;82;25786;-59
2022/09/25 03:18:40;;;;;;;;;;;;;;;6.23;73.73;101440.83;1743055;82;25814;-61
2022/09/25 03:21:07;;;;;;;;;;;;;;;6.21;73.67;101436.08;1742747;82;26693;-58
2022/09/25 03:23:33;;;;;;;;;;;;;;;6.19;73.59;101435.30;1742969;82;25984;-59
2022/09/25 03:26:00;;;;;;;;;;;;;;;6.18;73.81;101434.91;1742904;82;27533;-60
2022/09/25 03:28:26;;;;;;;;;;;;;;;6.17;73.74;101429.67;1742943;82;25840;-59
2022/09/25 03:31:09;;;;;;;;;;;;;;;6.17;73.67;101432.34;1739185;81;25495;-60
2022/09/25 03:33:39;;;;;;;;;;;;;;;6.17;73.52;101441.20;1735388;82;25878;-59
2022/09/25 03:36:17;;;;;;;;;;;;;;;6.15;73.53;101440.42;1734977;81;25429;-59
2022/09/25 03:38:48;;;;;;;;;;;;;;;6.15;73.61;101432.41;1739544;81;27496;-59
2022/09/25 03:41:19;;;;;;;;;;;;;;;6.15;73.60;101440.91;1746855;81;25691;-59
2022/09/25 03:43:47;;;;;;;;;;;;;;;6.12;73.48;101441.96;1743322;82;25807;-59
2022/09/25 03:46:14;;;;;;;;;;;;;;;6.12;73.58;101447.30;1743102;82;25819;-59
2022/09/25 03:48:41;;;;;;;;;;;;;;;6.11;73.73;101445.09;1742371;82;25723;-59
2022/09/25 03:51:08;;;;;;;;;;;;;;;6.11;73.59;101453.11;1740886;82;27483;-59
2022/09/25 03:53:36;;;;;;;;;;;;;;;6.11;73.56;101450.92;1740934;82;25759;-59
2022/09/25 03:56:05;;;;;;;;;;;;;;;6.10;73.46;101448.71;1740936;82;25727;-61
2022/09/25 03:58:33;;;;;;;;;;;;;;;6.10;73.37;101450.05;1740776;82;25767;-60
2022/09/25 04:01:00;;;;;;;;;;;;;;;6.07;73.40;101442.69;1740809;82;25781;-59
2022/09/25 04:03:29;;;;;;;;;;;;;;;6.07;73.35;101446.70;1740841;82;27499;-60
2022/09/25 04:05:57;;;;;;;;;;;;;;;6.06;73.45;101439.63;1740850;82;25796;-59
2022/09/25 04:08:25;;;;;;;;;;;;;;;6.05;73.73;101444.13;1741093;82;25718;-59
2022/09/25 04:10:55;;;;;;;;;;;;;;;6.06;73.41;101440.97;1740942;82;25749;-60
2022/09/25 04:13:30;;;;;;;;;;;;;;;6.07;73.34;101442.69;1740692;82;25831;-59
2022/09/25 04:15:57;;;;;;;;;;;;;;;6.07;73.44;101444.02;1741097;82;27493;-60
2022/09/25 04:18:24;;;;;;;;;;;;;;;6.07;73.33;101443.57;1740784;82;25703;-60
2022/09/25 04:20:51;;;;;;;;;;;;;;;6.07;73.23;101442.23;1740619;82;25699;-59
2022/09/25 04:23:18;;;;;;;;;;;;;;;6.08;73.32;101441.74;1740730;82;25817;-59
2022/09/25 04:25:44;;;;;;;;;;;;;;;6.06;73.16;101439.17;1740987;81;25762;-59
2022/09/25 04:28:11;;;;;;;;;;;;;;;6.06;73.14;101430.28;1740782;82;27543;-58
2022/09/25 04:30:37;;;;;;;;;;;;;;;6.08;73.29;101441.74;1740600;82;25774;-59
2022/09/25 04:35:49;;;;;;;;;;;;;;;6.14;73.50;101444.04;1738349;82;25868;-60
2022/09/25 04:38:16;;;;;;;;;;;;;;;6.16;73.47;101438.62;1739302;82;25752;-59
2022/09/25 04:40:44;;;;;;;;;;;;;;;6.19;73.55;101437.97;1755881;81;27470;-61
2022/09/25 04:43:11;;;;;;;;;;;;;;;6.24;73.57;101436.36;1758541;81;25803;-60
2022/09/25 04:45:38;;;;;;;;;;;;;;;6.27;73.51;101426.84;1758680;81;25706;-59
2022/09/25 04:48:05;;;;;;;;;;;;;;;6.30;73.47;101430.64;1758453;81;25793;-60
2022/09/25 04:50:37;;;;;;;;;;;;;;;6.34;73.53;101432.64;1760795;81;25473;-59
2022/09/25 04:53:03;;;;;;;;;;;;;;;6.37;73.39;101437.33;1762241;80;28162;-60
2022/09/25 04:55:30;;;;;;;;;;;;;;;6.40;73.27;101445.17;1763803;81;25731;-60
2022/09/25 04:57:58;;;;;;;;;;;;;;;6.44;73.33;101445.00;1763605;81;25742;-59
2022/09/25 05:00:27;;;;;;;;;;;;;;;6.48;73.38;101451.40;1763791;81;25747;-59
2022/09/25 05:02:55;;;;;;;;;;;;;;;6.51;73.44;101451.19;1763507;81;25789;-60
2022/09/25 05:05:26;;;;;;;;;;;;;;;6.54;73.46;101448.84;1766182;80;27402;-59
2022/09/25 05:07:55;;;;;;;;;;;;;;;6.57;73.31;101450.84;1762982;81;25474;-59
2022/09/25 05:10:22;;;;;;;;;;;;;;;6.60;73.28;101447.12;1763288;81;25746;-60
2022/09/25 05:12:54;;;;;;;;;;;;;;;6.60;73.24;101451.58;1709868;83;25835;-60
2022/09/25 05:15:21;;;;;;;;;;;;;;;6.61;73.37;101451.52;1759034;81;25710;-60
2022/09/25 05:17:48;;;;;;;;;;;;;;;6.64;73.47;101447.78;1758747;81;27482;-60
2022/09/25 05:20:15;;;;;;;;;;;;;;;6.65;73.42;101452.18;1761047;81;25736;-61
2022/09/25 05:22:43;;;;;;;;;;;;;;;6.66;73.49;101445.88;1763411;81;25779;-61
2022/09/25 05:25:10;;;;;;;;;;;;;;;6.68;73.61;101452.84;1763538;81;25788;-59
2022/09/25 05:27:37;;;;;;;;;;;;;;;6.70;73.50;101442.05;1763622;81;25896;-60
2022/09/25 05:30:08;;;;;;;;;;;;;;;6.72;73.59;101438.81;1754180;81;27455;-60
2022/09/25 05:32:36;;;;;;;;;;;;;;;6.72;73.59;101449.02;1705803;83;25718;-60
2022/09/25 05:35:04;;;;;;;;;;;;;;;6.72;74.05;101453.52;1699743;83;25796;-58
2022/09/25 05:37:32;;;;;;;;;;;;;;;6.75;74.08;101452.00;1716251;83;26563;-60
2022/09/25 05:39:59;;;;;;;;;;;;;;;6.77;74.22;101455.91;1759379;80;25494;-59
2022/09/25 05:42:29;;;;;;;;;;;;;;;6.78;74.31;101453.13;1744525;81;27548;-59
2022/09/25 05:44:59;;;;;;;;;;;;;;;6.79;74.18;101448.66;1763251;80;25923;-59
2022/09/25 05:47:26;;;;;;;;;;;;;;;6.80;74.70;101453.06;1762912;81;25679;-60
2022/09/25 05:49:52;;;;;;;;;;;;;;;6.86;75.79;101449.99;1763565;81;26471;-59
2022/09/25 05:52:19;;;;;;;;;;;;;;;6.91;76.32;101445.70;1763367;81;25679;-60
2022/09/25 05:54:46;;;;;;;;;;;;;;;6.96;76.99;101448.47;1763567;81;28664;-60
2022/09/25 05:57:12;;;;;;;;;;;;;;;6.97;75.62;101453.33;1762869;81;25884;-59
2022/09/25 05:59:39;;;;;;;;;;;;;;;6.99;76.19;101445.58;1771994;81;25706;-60
2022/09/25 06:02:10;;;;;;;;;;;;;;;7.02;76.44;101450.75;1764878;81;25812;-61
2022/09/25 06:04:37;;;;;;;;;;;;;;;7.05;77.47;101446.55;1763212;81;25491;-60
2022/09/25 06:07:04;;;;;;;;;;;;;;;7.12;77.66;101447.49;1763207;81;29610;-60
2022/09/25 06:09:30;;;;;;;;;;;;;;;7.18;78.63;101445.30;1763650;80;25700;-60
2022/09/25 06:11:57;;;;;;;;;;;;;;;7.27;79.26;101446.51;1753892;80;25739;-61
2022/09/25 06:14:24;;;;;;;;;;;;;;;7.36;79.97;101443.73;1742683;82;26371;-59
2022/09/25 06:16:51;;;;;;;;;;;;;;;7.42;80.26;101448.69;1743109;82;26062;-60
2022/09/25 06:19:17;;;;;;;;;;;;;;;7.40;79.37;101455.95;1742276;82;27804;-61
2022/09/25 06:21:44;;;;;;;;;;;;;;;7.45;80.57;101453.85;1742790;82;25701;-59
2022/09/25 06:24:11;;;;;;;;;;;;;;;7.54;80.77;101460.41;1743083;82;25803;-60
2022/09/25 06:26:37;;;;;;;;;;;;;;;7.58;80.29;101461.07;1742965;82;25849;-61
2022/09/25 06:29:06;;;;;;;;;;;;;;;7.64;81.14;101456.18;1741008;81;27389;-59
2022/09/25 06:31:33;;;;;;;;;;;;;;;7.72;81.14;101454.34;1728072;81;27409;-59
2022/09/25 06:34:00;;;;;;;;;;;;;;;7.78;81.42;101456.61;1721399;83;25675;-61
2022/09/25 06:36:27;;;;;;;;;;;;;;;7.78;81.28;101459.30;1721477;83;25773;-60
2022/09/25 06:38:54;;;;;;;;;;;;;;;7.82;81.66;101466.19;1730905;81;27034;-60
2022/09/25 06:41:22;;;;;;;;;;;;;;;7.92;81.40;101462.89;1721237;82;25778;-60
2022/09/25 06:43:52;;;;;;;;;;;;;;;7.97;82.06;101468.80;1743101;82;27498;-59
2022/09/25 06:46:21;;;;;;;;;;;;;;;8.02;81.25;101465.34;1742857;82;25731;-60
2022/09/25 06:48:59;;;;;;;;;;;;;;;8.06;81.10;101450.77;1742976;82;25683;-60
2022/09/25 06:51:31;;;;;;;;;;;;;;;8.12;81.19;101450.34;1727578;82;25803;-60
2022/09/25 06:53:58;;;;;;;;;;;;;;;8.20;80.85;101454.34;1728952;82;26298;-60
2022/09/25 06:56:24;;;;;;;;;;;;;;;8.31;81.97;101453.11;1723832;83;28131;-60
2022/09/25 06:58:51;;;;;;;;;;;;;;;8.42;81.75;101458.61;1722655;83;25725;-59
2022/09/25 07:01:18;;;;;;;;;;;;;;;8.52;81.94;101453.48;1727607;82;25720;-59
2022/09/25 07:03:44;;;;;;;;;;;;;;;8.60;83.17;101451.63;1724597;82;25889;-58
2022/09/25 07:06:17;;;;;;;;;;;;;;;8.69;83.76;101453.67;1723978;83;25810;-60
2022/09/25 07:08:44;;;;;;;;;;;;;;;8.76;83.35;101445.56;1725806;82;27510;-60
2022/09/25 07:11:18;;;;;;;;;;;;;;;8.87;84.35;101446.63;1728740;82;25855;-60
2022/09/25 07:13:45;;;;;;;;;;;;;;;8.99;84.20;101447.58;1732688;82;25779;-60
2022/09/25 07:16:15;;;;;;;;;;;;;;;9.10;83.51;101448.18;1725219;82;25759;-59
2022/09/25 07:18:43;;;;;;;;;;;;;;;9.17;83.21;101446.77;1723257;83;25780;-60
2022/09/25 07:21:14;;;;;;;;;;;;;;;9.27;82.52;101447.82;1732305;82;27502;-60
2022/09/25 07:23:41;;;;;;;;;;;;;;;9.32;82.46;101449.67;1723687;82;25792;-60
2022/09/25 07:26:11;;;;;;;;;;;;;;;9.39;82.45;101436.17;1726091;82;25814;-60
2022/09/25 07:28:40;;;;;;;;;;;;;;;9.47;83.11;101435.62;1727180;83;25921;-60
2022/09/25 07:31:15;;;;;;;;;;;;;;;9.50;82.47;101435.37;1734903;80;25756;-61
2022/09/25 07:33:43;;;;;;;;;;;;;;;9.57;82.90;101438.47;1729790;82;27475;-60
2022/09/25 07:36:11;;;;;;;;;;;;;;;9.60;82.82;101430.20;1730251;82;25797;-60
2022/09/25 07:38:38;;;;;;;;;;;;;;;9.75;82.98;101436.73;1730118;81;25798;-61
2022/09/25 07:41:06;;;;;;;;;;;;;;;9.85;83.43;101431.05;1729385;81;25735;-60
2022/09/25 07:43:33;;;;;;;;;;;;;;;9.92;83.11;101430.11;1727269;82;25701;-61
2022/09/25 07:46:00;;;;;;;;;;;;;;;9.99;83.44;101430.88;1726809;82;28236;-60
2022/09/25 07:48:29;;;;;;;;;;;;;;;10.12;82.99;101431.27;1695976;83;25853;-61
2022/09/25 07:51:00;;;;;;;;;;;;;;;10.24;83.13;101437.53;1718320;83;25704;-60
2022/09/25 07:53:27;;;;;;;;;;;;;;;10.38;82.54;101429.78;1725329;83;25786;-61
2022/09/25 07:55:58;;;;;;;;;;;;;;;10.51;82.59;101439.97;1727253;82;25713;-60
2022/09/25 07:58:25;;;;;;;;;;;;;;;10.65;82.48;101437.05;1726985;83;28136;-60
2022/09/25 08:00:53;;;;;;;;;;;;;;;10.88;82.21;101437.09;1727180;82;25701;-61
2022/09/25 08:03:20;;;;;;;;;;;;;;;11.10;82.77;101435.34;1727035;83;25769;-58
2022/09/25 08:05:47;;;;;;;;;;;;;;;11.30;82.54;101430.19;1727202;83;25877;-60
2022/09/25 08:08:13;;;;;;;;;;;;;;;11.51;81.67;101422.19;1727089;83;25765;-61
2022/09/25 08:10:40;;;;;;;;;;;;;;;11.75;82.45;101420.65;1726868;83;27568;-61
2022/09/25 08:13:06;;;;;;;;;;;;;;;12.01;82.08;101419.83;1727215;83;25850;-61
2022/09/25 08:15:33;;;;;;;;;;;;;;;12.26;80.78;101419.11;1727150;82;25708;-61
2022/09/25 08:17:59;;;;;;;;;;;;;;;12.46;79.68;101423.28;1726974;83;26819;-61
2022/09/25 08:20:26;;;;;;;;;;;;;;;12.66;73.32;101414.80;1726749;83;25736;-61
2022/09/25 08:22:53;;;;;;;;;;;;;;;12.87;71.67;101408.48;1727241;83;27522;-61
2022/09/25 08:25:20;;;;;;;;;;;;;;;13.06;72.70;101409.07;1726739;83;25733;-60
2022/09/25 08:27:47;;;;;;;;;;;;;;;13.26;71.63;101404.09;1726849;83;25748;-60
2022/09/25 08:30:14;;;;;;;;;;;;;;;13.50;71.09;101400.18;1728862;81;25805;-61
2022/09/25 08:32:41;;;;;;;;;;;;;;;13.76;70.57;101405.88;1721304;83;25961;-60
2022/09/25 08:35:08;;;;;;;;;;;;;;;14.03;67.01;101403.47;1721226;83;27616;-60
2022/09/25 08:37:39;;;;;;;;;;;;;;;14.27;63.50;101403.50;1735343;82;26023;-60
2022/09/25 08:40:08;;;;;;;;;;;;;;;14.50;65.55;101404.02;1762185;81;25786;-60
2022/09/25 08:42:36;;;;;;;;;;;;;;;14.76;66.07;101396.14;1763023;81;26206;-60
2022/09/25 08:50:38;;;;;;;;;;;;;;;15.74;60.04;101383.85;1764455;80;25798;-61
2022/09/25 08:53:08;;;;;;;;;;;;;;;16.09;58.96;101377.59;1765966;80;25761;-61
2022/09/25 08:58:27;;;;;;;;;;;;;;;16.63;55.09;101375.74;1766133;81;25769;-61
2022/09/25 09:00:56;;;;;;;;;;;;;;;16.98;54.49;101377.97;1766367;80;28190;-61
2022/09/25 09:03:24;;;;;;;;;;;;;;;17.29;52.49;101370.58;1766268;80;25751;-60
2022/09/25 09:05:54;;;;;;;;;;;;;;;17.62;52.16;101366.06;1766403;81;26385;-61
2022/09/25 09:08:24;;;;;;;;;;;;;;;17.96;52.94;101361.00;1766065;81;25850;-61
2022/09/25 09:10:54;;;;;;;;;;;;;;;18.35;51.87;101355.86;1766529;80;25836;-61
2022/09/25 09:13:29;;;;;;;;;;;;;;;18.77;44.62;101354.70;1766176;80;27568;-62
2022/09/25 09:16:02;;;;;;;;;;;;;;;19.32;45.07;101354.81;1766305;80;25800;-62
2022/09/25 09:18:31;;;;;;;;;;;;;;;20.12;44.16;101335.78;1766461;81;25596;-60
2022/09/25 09:21:01;;;;;;;;;;;;;;;21.09;44.97;101330.41;1766108;81;25861;-62
2022/09/25 09:23:34;;;;;;;;;;;;;;;21.89;42.03;101331.75;1763718;81;26328;-61
2022/09/25 09:26:05;;;;;;;;;;;;;;;22.72;42.33;101324.73;1764808;81;31153;-61
2022/09/25 09:28:51;;;;;;;;;;;;;;;23.51;37.75;101331.56;1751964;81;25844;-61
2022/09/25 09:31:21;;;;;;;;;;;;;;;24.13;35.76;101331.39;1718842;82;25728;-61
2022/09/25 09:34:06;;;;;;;;;;;;;;;24.83;36.61;101321.73;1736126;82;25966;-62
2022/09/25 09:36:55;;;;;;;;;;;;;;;25.24;34.54;101316.88;1729367;82;25788;-62
2022/09/25 09:39:49;;;;;;;;;;;;;;;25.49;33.99;101312.83;1747563;81;28306;-60
2022/09/25 09:42:25;;;;;;;;;;;;;;;26.09;35.03;101308.75;1758093;80;25858;-60
2022/09/25 09:44:57;;;;;;;;;;;;;;;26.53;32.11;101303.20;1758201;81;25732;-61
2022/09/25 09:47:38;;;;;;;;;;;;;;;27.04;33.41;101299.69;1758539;81;25770;-61
2022/09/25 09:50:14;;;;;;;;;;;;;;;27.45;32.25;101299.98;1757776;81;26004;-61
2022/09/25 09:52:43;;;;;;;;;;;;;;;27.75;31.36;101292.17;1742928;81;27729;-60
2022/09/25 09:55:25;;;;;;;;;;;;;;;28.01;30.03;101285.34;1714076;83;25558;-60
2022/09/25 09:57:56;;;;;;;;;;;;;;;28.16;26.10;101284.03;1714285;83;25788;-61
2022/09/25 10:00:24;;;;;;;;;;;;;;;28.56;29.23;101285.47;1714262;83;25839;-61
2022/09/25 10:03:05;;;;;;;;;;;;;;;29.18;27.95;101295.01;1714370;83;25842;-60
2022/09/25 10:05:35;;;;;;;;;;;;;;;28.64;22.00;101288.41;1717431;83;27491;-61
2022/09/25 10:08:02;;;;;;;;;;;;;;;28.49;25.76;101286.67;1720842;83;25995;-61
2022/09/25 10:10:37;;;;;;;;;;;;;;;28.58;23.93;101280.53;1714650;83;25787;-60
2022/09/25 10:13:09;;;;;;;;;;;;;;;28.98;23.73;101270.55;1714828;82;25825;-61
2022/09/25 10:15:51;;;;;;;;;;;;;;;28.58;24.68;101257.01;1721888;83;25707;-62
2022/09/25 10:18:20;;;;;;;;;;;;;;;28.57;24.26;101258.62;1725856;82;28245;-61
2022/09/25 10:21:02;;;;;;;;;;;;;;;28.60;24.30;101250.39;1723112;83;25945;-62
2022/09/25 10:23:49;;;;;;;;;;;;;;;28.65;24.83;101248.53;1723358;82;25688;-61
2022/09/25 10:26:27;;;;;;;;;;;;;;;28.82;24.67;101241.72;1721924;83;25858;-60
2022/09/25 10:28:59;;;;;;;;;;;;;;;29.20;22.58;101240.20;1719783;83;25827;-61
2022/09/25 10:31:29;;;;;;;;;;;;;;;29.53;23.77;101236.34;1720948;83;28334;-60
2022/09/25 10:34:15;;;;;;;;;;;;;;;30.06;25.08;101241.59;1720939;83;25834;-61
2022/09/25 10:36:48;;;;;;;;;;;;;;;30.55;21.50;101238.09;1726663;83;25727;-61
2022/09/25 10:39:35;;;;;;;;;;;;;;;30.31;20.01;101236.09;1728556;81;25851;-61
2022/09/25 10:42:11;;;;;;;;;;;;;;;30.27;22.41;101230.22;1673793;83;25745;-61
2022/09/25 10:44:38;;;;;;;;;;;;;;;30.94;21.30;101229.61;1721758;83;27507;-60
2022/09/25 10:50:23;;;;;;;;;;;;;;;30.79;17.96;101219.73;1726647;83;25806;-61
2022/09/25 10:52:54;;;;;;;;;;;;;;;30.97;19.54;101220.75;1726883;82;25883;-60
2022/09/25 10:55:29;;;;;;;;;;;;;;;31.26;19.68;101223.81;1726976;83;25810;-61
2022/09/25 10:58:11;;;;;;;;;;;;;;;31.35;19.18;101227.78;1726510;83;27591;-60
2022/09/25 11:00:53;;;;;;;;;;;;;;;31.60;20.37;101211.03;1726862;83;25426;-60
2022/09/25 11:03:35;;;;;;;;;;;;;;;32.16;20.91;101204.41;1726598;82;25768;-60
2022/09/25 11:06:04;;;;;;;;;;;;;;;32.80;22.00;101211.37;1726887;82;25855;-60
2022/09/25 11:08:37;;;;;;;;;;;;;;;33.02;19.75;101202.75;1726636;82;25875;-59
2022/09/25 11:11:07;;;;;;;;;;;;;;;32.82;19.43;101206.90;1726837;83;27698;-61
2022/09/25 11:13:53;;;;;;;;;;;;;;;32.66;19.11;101211.02;1726570;82;25930;-59
2022/09/25 11:16:20;;;;;;;;;;;;;;;32.30;19.59;101209.52;1727220;82;25757;-61
2022/09/25 11:18:51;;;;;;;;;;;;;;;32.25;19.29;101215.05;1726763;83;25868;-60
2022/09/25 11:21:33;;;;;;;;;;;;;;;31.99;20.92;101206.55;1726856;82;25799;-61
2022/09/25 11:24:21;;;;;;;;;;;;;;;31.82;21.19;101213.14;1726790;83;28189;-61
2022/09/25 11:27:09;;;;;;;;;;;;;;;32.04;20.23;101209.91;1726236;82;25779;-61
2022/09/25 11:29:46;;;;;;;;;;;;;;;31.48;20.71;101199.55;1719487;82;25467;-59
2022/09/25 11:32:38;;;;;;;;;;;;;;;31.34;21.64;101207.50;1699861;82;26508;-62
2022/09/25 11:35:25;;;;;;;;;;;;;;;31.11;19.96;101210.09;1624191;86;26140;-61
2022/09/25 11:37:59;;;;;;;;;;;;;;;30.76;21.12;101193.33;1659651;84;27630;-60
2022/09/25 11:43:30;;;;;;;;;;;;;;;30.38;20.53;101204.81;1694727;83;25340;-62
2022/09/25 11:46:01;;;;;;;;;;;;;;;30.00;20.37;101198.22;1655743;83;26546;-60
2022/09/25 11:48:43;;;;;;;;;;;;;;;29.81;21.43;101195.18;1697260;83;25817;-61
2022/09/25 11:51:31;;;;;;;;;;;;;;;29.91;21.74;101197.80;1701675;83;27498;-60
2022/09/25 11:54:07;;;;;;;;;;;;;;;30.08;21.72;101196.38;1730565;82;25701;-61
2022/09/25 11:56:46;;;;;;;;;;;;;;;30.26;21.94;101192.46;1748090;81;25778;-61
2022/09/25 11:59:48;;;;;;;;;;;;;;;30.28;20.85;101184.73;1748518;82;26370;-61
2022/09/25 12:02:40;;;;;;;;;;;;;;;30.26;21.91;101181.36;1748907;82;25970;-61
2022/09/25 12:05:28;;;;;;;;;;;;;;;30.65;19.63;101177.13;1747797;80;27501;-61
2022/09/25 12:08:08;;;;;;;;;;;;;;;30.82;19.75;101176.17;1747626;82;25813;-61
2022/09/25 12:10:39;;;;;;;;;;;;;;;30.65;19.60;101172.96;1747956;81;26430;-60
2022/09/25 12:13:35;;;;;;;;;;;;;;;30.87;20.91;101171.52;1746550;81;25803;-61
2022/09/25 12:16:15;;;;;;;;;;;;;;;31.53;20.68;101167.59;1722383;82;25796;-61
2022/09/25 12:18:54;;;;;;;;;;;;;;;32.38;18.72;101163.59;1723425;82;27543;-62
2022/09/25 12:21:33;;;;;;;;;;;;;;;32.83;19.58;101157.04;1737633;81;26541;-61
2022/09/25 12:24:00;;;;;;;;;;;;;;;33.55;18.11;101150.88;1739223;82;25766;-61
2022/09/25 12:26:33;;;;;;;;;;;;;;;34.07;17.19;101145.70;1698602;82;26158;-61
2022/09/25 12:29:37;;;;;;;;;;;;;;;34.52;16.41;101136.83;1734629;81;25899;-60
2022/09/25 12:32:28;;;;;;;;;;;;;;;34.53;17.39;101129.27;1718616;83;28373;-61
2022/09/25 12:35:25;;;;;;;;;;;;;;;34.55;16.96;101129.27;1718610;82;25826;-61
2022/09/25 12:37:56;;;;;;;;;;;;;;;34.71;17.17;101128.58;1724276;82;26024;-60
2022/09/25 12:40:26;;;;;;;;;;;;;;;35.11;16.50;101131.34;1727466;82;25805;-61
2022/09/25 12:43:06;;;;;;;;;;;;;;;35.54;16.43;101137.11;1747882;81;25896;-61
2022/09/25 12:45:46;;;;;;;;;;;;;;;35.79;17.04;101135.13;1742250;82;27533;-61
2022/09/25 12:48:21;;;;;;;;;;;;;;;36.45;16.58;101130.38;1739649;82;26113;-60
2022/09/25 12:50:54;;;;;;;;;;;;;;;36.61;16.18;101130.98;1740178;82;25775;-60
2022/09/25 12:53:28;;;;;;;;;;;;;;;37.12;16.34;101122.28;1732611;82;25781;-60
2022/09/25 12:56:01;;;;;;;;;;;;;;;37.66;16.34;101122.69;1726891;82;26190;-61
2022/09/25 12:58:43;;;;;;;;;;;;;;;38.30;15.05;101130.32;1726610;83;28778;-60
2022/09/25 13:01:25;;;;;;;;;;;;;;;38.62;14.63;101116.39;1726658;82;27078;-60
2022/09/25 13:04:04;;;;;;;;;;;;;;;38.86;14.72;101111.89;1726281;83;25752;-61
2022/09/25 13:06:40;;;;;;;;;;;;;;;38.78;15.15;101109.23;1726726;82;26373;-60
2022/09/25 13:09:13;;;;;;;;;;;;;;;39.16;14.89;101100.95;1726718;83;25717;-60
2022/09/25 13:11:53;;;;;;;;;;;;;;;38.75;14.25;101100.61;1726771;83;27494;-59
2022/09/25 13:14:33;;;;;;;;;;;;;;;38.23;15.36;101102.39;1726808;83;25738;-60
2022/09/25 13:17:01;;;;;;;;;;;;;;;38.29;15.02;101099.16;1726581;83;25751;-60
2022/09/25 13:19:31;;;;;;;;;;;;;;;38.75;14.89;101092.99;1726791;83;25888;-60
2022/09/25 13:22:11;;;;;;;;;;;;;;;38.85;13.43;101087.73;1726556;83;25471;-61
2022/09/25 13:24:58;;;;;;;;;;;;;;;39.14;13.72;101089.19;1726962;82;27691;-60
2022/09/25 13:27:25;;;;;;;;;;;;;;;39.41;13.43;101088.19;1726172;83;25797;-61
2022/09/25 13:30:00;;;;;;;;;;;;;;;39.43;13.54;101091.52;1720534;83;25764;-61
2022/09/25 13:32:33;;;;;;;;;;;;;;;38.98;13.97;101074.14;1711470;83;25834;-61